Time;durP1;ratioP1;P1;durP2;ratioP2;P2;SDS_P1;SDS_P2;PMS_P1;PMS_P2;Temp;Humidity;BMP_temperature;BMP_pressure;BME280_temperature;BME280_humidity;BME280_pressure;Samples;Min_cycle;Max_cycle;Signal;HPM_P1;HPM_P2
2023/09/13 00:00:23;;;;;;;4.93;2.80;;;;;;;16.01;53.29;95045.84;5070322;28;20426;-79
2023/09/13 00:02:48;;;;;;;5.55;3.00;;;;;;;16.02;53.51;95046.69;5071722;28;20028;-78
2023/09/13 00:05:14;;;;;;;5.95;2.92;;;;;;;15.87;53.95;95025.47;5053121;28;20036;-78
2023/09/13 00:07:39;;;;;;;6.10;3.00;;;;;;;15.85;54.11;95040.50;5053112;28;20075;-79
2023/09/13 00:10:05;;;;;;;4.72;2.70;;;;;;;15.79;54.03;95010.50;5052796;28;20023;-78
2023/09/13 00:12:31;;;;;;;4.43;2.90;;;;;;;15.84;54.32;95038.88;5060833;28;20478;-78
2023/09/13 00:14:56;;;;;;;5.55;2.95;;;;;;;15.62;54.55;95008.72;5070956;28;20040;-78
2023/09/13 00:17:22;;;;;;;4.88;2.70;;;;;;;15.81;54.46;95036.56;5071162;28;20020;-78
2023/09/13 00:19:47;;;;;;;5.00;2.60;;;;;;;15.70;54.98;95032.38;5069182;28;20033;-78
2023/09/13 00:22:13;;;;;;;6.60;2.95;;;;;;;15.66;55.36;95031.03;5068660;28;20036;-78
2023/09/13 00:24:38;;;;;;;4.18;2.70;;;;;;;15.56;55.64;95028.50;5051815;28;20037;-79
2023/09/13 00:27:04;;;;;;;5.95;3.08;;;;;;;15.64;55.44;95039.03;5058299;28;20105;-78
2023/09/13 00:29:33;;;;;;;4.43;2.60;;;;;;;15.56;55.81;95032.91;5053089;28;20036;-78
2023/09/13 00:31:59;;;;;;;5.40;3.05;;;;;;;15.55;55.84;95039.13;5069551;28;20032;-78
2023/09/13 00:34:24;;;;;;;5.18;3.10;;;;;;;15.29;56.81;95028.59;5069089;28;20078;-78
2023/09/13 00:36:49;;;;;;;4.43;2.85;;;;;;;15.26;57.25;95039.38;5035462;28;20028;-78
2023/09/13 00:39:15;;;;;;;6.47;3.20;;;;;;;15.14;57.43;95034.34;5052656;28;20410;-77
2023/09/13 00:41:40;;;;;;;4.22;3.08;;;;;;;15.13;57.40;95031.91;5069652;28;20028;-78
2023/09/13 00:44:06;;;;;;;10.30;3.25;;;;;;;15.19;57.36;95049.63;5068826;28;20055;-79
2023/09/13 00:46:32;;;;;;;4.63;3.00;;;;;;;15.18;57.41;95040.09;5069095;28;20468;-79
2023/09/13 00:48:57;;;;;;;4.18;3.10;;;;;;;15.11;57.41;95042.50;5036344;28;20032;-79
2023/09/13 00:51:23;;;;;;;4.60;3.15;;;;;;;15.04;57.48;95038.00;5052174;28;20525;-78
2023/09/13 00:53:48;;;;;;;4.30;3.03;;;;;;;15.08;57.83;95050.66;5052541;28;20040;-76
2023/09/13 00:56:15;;;;;;;4.43;3.10;;;;;;;14.97;57.67;95048.25;5069111;28;20029;-78
2023/09/13 00:58:40;;;;;;;5.75;2.63;;;;;;;15.05;56.69;95056.19;5051998;28;20037;-78
2023/09/13 01:01:06;;;;;;;4.75;2.90;;;;;;;14.93;57.06;95063.44;5069262;28;20035;-78
2023/09/13 01:03:32;;;;;;;4.55;3.10;;;;;;;14.99;57.46;95051.56;5052672;28;20044;-77
2023/09/13 01:05:57;;;;;;;4.30;2.90;;;;;;;15.02;57.49;95051.25;5036049;28;20478;-78
2023/09/13 01:08:22;;;;;;;6.53;3.10;;;;;;;14.95;57.60;95051.00;5052205;28;20040;-78
2023/09/13 01:10:48;;;;;;;5.43;3.25;;;;;;;15.09;57.26;95052.28;5035630;28;20036;-78
2023/09/13 01:13:14;;;;;;;4.47;3.10;;;;;;;14.94;57.15;95043.31;5052887;28;20506;-78
2023/09/13 01:15:51;;;;;;;4.90;3.20;;;;;;;14.89;57.50;95042.94;5070050;28;20043;-78
2023/09/13 01:18:31;;;;;;;3.95;2.75;;;;;;;14.85;57.19;95047.66;5069094;28;20051;-78
2023/09/13 01:21:24;;;;;;;5.97;3.30;;;;;;;14.81;57.63;95053.31;5036020;28;20037;-78
2023/09/13 01:24:15;;;;;;;5.35;2.65;;;;;;;14.83;57.80;95054.81;5065355;28;20039;-79
2023/09/13 01:26:51;;;;;;;4.38;3.08;;;;;;;14.69;58.00;95044.88;5041649;28;20032;-78
2023/09/13 01:29:17;;;;;;;5.90;3.00;;;;;;;14.80;57.52;95049.88;5068820;28;20033;-78
2023/09/13 01:31:42;;;;;;;4.63;3.25;;;;;;;14.85;57.55;95058.13;5052363;28;20025;-78
2023/09/13 01:34:08;;;;;;;5.80;3.30;;;;;;;14.75;57.61;95055.53;5052140;28;20482;-78
2023/09/13 01:36:34;;;;;;;3.80;2.80;;;;;;;14.82;57.41;95052.34;5070716;28;20037;-78
2023/09/13 01:39:00;;;;;;;4.90;2.92;;;;;;;14.83;57.29;95054.00;5051891;28;20086;-78
2023/09/13 01:41:28;;;;;;;3.60;3.00;;;;;;;14.70;57.79;95060.38;5070398;28;20025;-78
2023/09/13 01:43:54;;;;;;;4.40;2.80;;;;;;;14.61;57.99;95050.81;5070401;28;20036;-77
2023/09/13 01:46:19;;;;;;;4.07;2.70;;;;;;;14.63;58.11;95058.53;5053647;28;20406;-78
2023/09/13 01:48:45;;;;;;;6.25;2.80;;;;;;;14.68;57.98;95062.34;5038950;28;20464;-77
2023/09/13 01:51:10;;;;;;;4.95;2.83;;;;;;;14.67;57.91;95062.47;5072271;28;20048;-78
2023/09/13 01:53:45;;;;;;;4.30;2.72;;;;;;;14.64;57.77;95055.75;5039102;28;20039;-79
2023/09/13 01:56:11;;;;;;;4.15;2.80;;;;;;;14.56;58.03;95065.28;5056137;28;20490;-78
2023/09/13 01:58:36;;;;;;;5.05;2.97;;;;;;;14.51;58.25;95066.53;5072121;28;20039;-79
2023/09/13 02:01:02;;;;;;;5.90;3.33;;;;;;;14.55;58.19;95047.97;5038918;28;20418;-79
2023/09/13 02:03:27;;;;;;;4.28;2.85;;;;;;;14.57;57.96;95056.47;5071945;28;20040;-76
2023/09/13 02:05:52;;;;;;;4.57;3.22;;;;;;;14.57;57.96;95059.09;5073541;28;20418;-78
2023/09/13 02:08:18;;;;;;;4.00;2.90;;;;;;;14.57;58.06;95059.94;5055623;28;20407;-78
2023/09/13 02:10:47;;;;;;;4.28;2.83;;;;;;;14.71;57.50;95056.81;5055065;28;20099;-79
2023/09/13 02:13:12;;;;;;;3.80;2.53;;;;;;;14.69;57.58;95052.72;5073273;28;20035;-78
2023/09/13 02:15:41;;;;;;;4.25;2.70;;;;;;;14.57;57.86;95049.47;5061178;28;20029;-78
2023/09/13 02:18:07;;;;;;;6.45;2.60;;;;;;;14.60;57.68;95064.00;5055191;28;20036;-78
2023/09/13 02:20:32;;;;;;;5.70;2.70;;;;;;;14.64;57.51;95060.16;5071995;28;20097;-78
2023/09/13 02:22:57;;;;;;;4.57;2.67;;;;;;;14.68;57.37;95053.66;5071681;28;20273;-79
2023/09/13 02:25:23;;;;;;;7.03;3.05;;;;;;;14.53;57.68;95035.03;5055572;28;20020;-78
2023/09/13 02:27:48;;;;;;;4.70;2.90;;;;;;;14.67;57.62;95060.69;5071466;28;20039;-78
2023/09/13 02:30:14;;;;;;;5.47;3.00;;;;;;;14.66;57.26;95035.50;5071662;28;20033;-78
2023/09/13 02:32:40;;;;;;;7.00;2.80;;;;;;;14.74;56.98;95051.28;5072129;28;20075;-78
2023/09/13 02:35:06;;;;;;;8.93;3.00;;;;;;;14.82;56.91;95050.56;5072528;28;20047;-78
2023/09/13 02:37:32;;;;;;;4.85;2.75;;;;;;;14.85;56.78;95052.03;5063240;28;20041;-78
2023/09/13 02:39:58;;;;;;;3.80;2.85;;;;;;;14.81;56.83;95042.84;5018717;28;20029;-78
2023/09/13 02:42:23;;;;;;;5.03;2.78;;;;;;;14.81;56.85;95048.09;5068979;28;20028;-78
2023/09/13 02:44:48;;;;;;;5.47;2.70;;;;;;;14.88;56.88;95057.00;5071830;28;20036;-79
2023/09/13 02:47:14;;;;;;;8.15;3.13;;;;;;;14.82;57.22;95058.41;5071891;28;20029;-79
2023/09/13 02:49:40;;;;;;;4.15;2.70;;;;;;;14.81;57.35;95061.97;5054920;28;20049;-78
2023/09/13 02:52:05;;;;;;;4.68;2.85;;;;;;;14.86;57.32;95064.16;5054599;28;20027;-78
2023/09/13 02:54:31;;;;;;;6.03;3.47;;;;;;;14.81;57.59;95061.97;5071007;28;20412;-78
2023/09/13 02:56:57;;;;;;;3.50;2.65;;;;;;;14.69;57.92;95063.16;5071511;28;20043;-78
2023/09/13 02:59:22;;;;;;;5.03;2.97;;;;;;;14.71;57.94;95072.50;5070710;28;20037;-78
2023/09/13 03:01:49;;;;;;;4.55;3.00;;;;;;;14.55;58.24;95061.84;5072294;28;20032;-78
2023/09/13 03:04:14;;;;;;;6.47;3.13;;;;;;;14.72;58.18;95083.78;5038471;28;20106;-79
2023/09/13 03:06:40;;;;;;;6.75;3.17;;;;;;;14.64;58.35;95084.50;5070678;28;20028;-78
2023/09/13 03:09:05;;;;;;;4.72;3.00;;;;;;;14.57;58.66;95078.22;5070471;28;20036;-78
2023/09/13 03:11:30;;;;;;;5.38;3.17;;;;;;;14.64;58.54;95076.66;5054614;28;20078;-78
2023/09/13 03:13:56;;;;;;;6.68;2.90;;;;;;;14.54;58.83;95081.09;5070338;28;20041;-78
2023/09/13 03:16:21;;;;;;;4.15;2.90;;;;;;;14.46;59.25;95086.22;5071143;28;20483;-78
2023/09/13 03:18:49;;;;;;;4.65;2.92;;;;;;;14.33;59.50;95070.88;5054281;28;20112;-78
2023/09/13 03:21:15;;;;;;;4.25;2.97;;;;;;;14.42;59.49;95087.47;5071648;28;20111;-78
2023/09/13 03:23:45;;;;;;;4.53;3.28;;;;;;;14.47;59.50;95085.25;5053549;28;20030;-77
2023/09/13 03:26:18;;;;;;;4.90;2.78;;;;;;;14.58;59.13;95087.72;5070680;28;20494;-78
2023/09/13 03:28:47;;;;;;;5.15;2.63;;;;;;;14.51;59.17;95079.59;5066874;28;20036;-77
2023/09/13 03:31:14;;;;;;;3.92;2.60;;;;;;;14.37;59.38;95084.47;5054443;28;20039;-77
2023/09/13 03:33:39;;;;;;;4.63;3.05;;;;;;;14.27;59.87;95090.56;5037317;28;20106;-78
2023/09/13 03:36:11;;;;;;;6.90;3.00;;;;;;;14.28;60.00;95093.97;5070203;28;20036;-76
2023/09/13 03:38:40;;;;;;;6.38;3.00;;;;;;;14.13;60.43;95096.25;5054277;28;20166;-77
2023/09/13 03:41:09;;;;;;;5.28;3.30;;;;;;;14.05;60.43;95081.25;5054053;28;20146;-77
2023/09/13 03:43:35;;;;;;;5.53;3.10;;;;;;;14.15;60.92;95099.53;5039975;28;20032;-78
2023/09/13 03:46:02;;;;;;;4.78;3.10;;;;;;;14.03;61.20;95103.25;5046773;28;20032;-78
2023/09/13 03:48:30;;;;;;;4.32;3.13;;;;;;;14.18;60.83;95098.41;5070295;28;20040;-78
2023/09/13 03:50:55;;;;;;;4.10;2.92;;;;;;;13.99;61.17;95096.69;5037118;28;20102;-78
2023/09/13 03:53:20;;;;;;;4.65;3.13;;;;;;;13.90;61.39;95084.44;5053383;28;20024;-78
2023/09/13 03:55:46;;;;;;;5.90;3.10;;;;;;;13.74;62.32;95092.88;5053450;28;20040;-78
2023/09/13 03:58:11;;;;;;;6.13;3.33;;;;;;;13.64;62.43;95078.03;5037144;28;20102;-78
2023/09/13 04:00:37;;;;;;;6.45;3.45;;;;;;;13.80;62.33;95089.72;5053271;28;20028;-78
2023/09/13 04:03:03;;;;;;;8.05;3.20;;;;;;;13.92;61.75;95091.19;5070111;28;20303;-77
2023/09/13 04:05:29;;;;;;;4.88;3.22;;;;;;;13.74;62.19;95095.50;5053460;28;20476;-78
2023/09/13 04:07:55;;;;;;;4.10;3.10;;;;;;;13.58;62.87;95093.44;5069561;28;20444;-77
2023/09/13 04:10:20;;;;;;;6.10;3.17;;;;;;;13.78;62.65;95097.66;5052200;28;20036;-78
2023/09/13 04:12:45;;;;;;;4.50;3.70;;;;;;;13.53;63.27;95100.84;5070275;28;20028;-78
2023/09/13 04:15:11;;;;;;;5.07;3.30;;;;;;;13.53;63.10;95079.97;5069409;28;20040;-78
2023/09/13 04:17:36;;;;;;;4.30;3.20;;;;;;;13.50;63.69;95095.91;5071400;28;20035;-78
2023/09/13 04:20:02;;;;;;;6.45;3.42;;;;;;;13.66;62.77;95096.19;5053124;28;20040;-78
2023/09/13 04:22:28;;;;;;;5.28;3.20;;;;;;;13.56;63.58;95100.56;5071410;28;20024;-78
2023/09/13 04:24:53;;;;;;;4.40;3.13;;;;;;;13.52;63.19;95087.00;5035916;28;20036;-78
2023/09/13 04:27:25;;;;;;;5.85;3.45;;;;;;;13.66;63.16;95095.38;5069563;28;20033;-78
2023/09/13 04:29:50;;;;;;;6.95;3.40;;;;;;;13.58;63.23;95090.84;5069290;28;20438;-78
2023/09/13 04:32:16;;;;;;;6.07;3.78;;;;;;;13.50;63.27;95094.13;5051184;28;20033;-78
2023/09/13 04:34:41;;;;;;;5.72;3.70;;;;;;;13.55;63.33;95091.09;5049719;28;20040;-79
2023/09/13 04:37:07;;;;;;;5.00;3.28;;;;;;;13.69;63.03;95095.09;5061686;28;20033;-78
2023/09/13 04:39:32;;;;;;;4.80;3.25;;;;;;;13.79;62.69;95101.94;5050733;28;20041;-78
2023/09/13 04:41:58;;;;;;;4.50;3.30;;;;;;;13.76;62.57;95096.16;5048533;28;20050;-78
2023/09/13 04:44:24;;;;;;;4.70;3.38;;;;;;;13.69;62.88;95103.72;5050147;28;20490;-78
2023/09/13 04:46:50;;;;;;;4.20;3.17;;;;;;;13.80;62.05;95103.59;5056600;28;20190;-78
2023/09/13 04:49:16;;;;;;;5.03;3.08;;;;;;;13.76;62.38;95086.56;5069859;28;20482;-78
2023/09/13 04:51:41;;;;;;;3.60;2.90;;;;;;;13.83;62.27;95102.47;5053220;28;20036;-79
2023/09/13 04:54:06;;;;;;;5.53;3.10;;;;;;;13.95;62.11;95110.97;5022207;28;20036;-79
2023/09/13 04:56:32;;;;;;;7.40;3.00;;;;;;;13.99;61.45;95101.91;5054427;28;20390;-78
2023/09/13 04:58:57;;;;;;;5.75;3.28;;;;;;;14.03;61.63;95098.84;5026983;28;20507;-79
2023/09/13 05:01:23;;;;;;;9.13;3.30;;;;;;;14.39;60.56;95099.03;5063400;28;20391;-79
2023/09/13 05:03:49;;;;;;;5.38;3.63;;;;;;;14.55;60.11;95103.69;5044032;28;20036;-79
2023/09/13 05:06:15;;;;;;;3.90;3.00;;;;;;;15.48;57.62;95104.34;5063940;28;20028;-79
2023/09/13 05:08:41;;;;;;;6.30;3.25;;;;;;;16.38;55.17;95086.69;5050902;28;20032;-78
2023/09/13 05:11:06;;;;;;;4.72;2.92;;;;;;;17.32;52.35;95093.59;5032557;28;20032;-79
2023/09/13 05:13:32;;;;;;;4.60;3.08;;;;;;;17.92;50.17;95082.00;5045414;28;20040;-78
2023/09/13 05:15:58;;;;;;;5.80;3.33;;;;;;;18.78;48.45;95095.47;5025486;28;20038;-78
2023/09/13 05:18:23;;;;;;;5.05;2.97;;;;;;;19.02;47.49;95100.63;5035796;28;20033;-79
2023/09/13 05:20:48;;;;;;;5.70;2.90;;;;;;;19.06;46.63;95077.44;5044078;28;20037;-78
2023/09/13 05:23:14;;;;;;;3.95;2.65;;;;;;;19.00;46.95;95073.69;5071591;28;20036;-79
2023/09/13 05:25:46;;;;;;;4.90;3.10;;;;;;;18.59;47.88;95081.69;5062250;28;20033;-78
2023/09/13 05:28:15;;;;;;;5.20;2.85;;;;;;;18.31;48.61;95089.19;5032464;28;20044;-78
2023/09/13 05:30:42;;;;;;;4.70;2.70;;;;;;;17.97;49.39;95086.75;5050716;28;20029;-78
2023/09/13 05:33:07;;;;;;;4.72;3.10;;;;;;;18.13;49.32;95097.25;5045918;28;20109;-77
2023/09/13 05:35:33;;;;;;;5.10;3.20;;;;;;;18.24;49.07;95096.91;5063543;28;20095;-78
2023/09/13 05:37:59;;;;;;;7.18;3.15;;;;;;;18.26;49.19;95094.94;5070749;28;20115;-78
2023/09/13 05:40:27;;;;;;;4.25;3.20;;;;;;;18.51;49.12;95097.50;5050110;28;20461;-76
2023/09/13 05:42:53;;;;;;;13.18;3.72;;;;;;;18.56;49.00;95099.66;5046924;28;20083;-74
2023/09/13 05:45:18;;;;;;;10.68;3.90;;;;;;;18.49;48.83;95089.78;5066105;28;20485;-76
2023/09/13 05:47:44;;;;;;;9.63;4.15;;;;;;;18.62;48.76;95097.16;5064564;28;20047;-77
2023/09/13 05:50:09;;;;;;;8.73;3.70;;;;;;;18.59;49.67;95081.69;5044811;28;20393;-81
2023/09/13 05:52:37;;;;;;;7.53;3.50;;;;;;;18.49;50.32;95094.22;5056554;28;20033;-76
2023/09/13 05:55:02;;;;;;;8.18;3.90;;;;;;;18.55;50.71;95096.16;5068534;28;20106;-76
2023/09/13 05:57:28;;;;;;;9.85;4.18;;;;;;;18.41;49.67;95094.25;5074272;28;20036;-71
2023/09/13 05:59:53;;;;;;;8.10;4.47;;;;;;;18.58;48.93;95095.81;5070559;28;20559;-75
2023/09/13 06:02:19;;;;;;;6.68;4.07;;;;;;;18.82;49.76;95086.25;5055212;28;20058;-76
2023/09/13 06:04:44;;;;;;;8.70;4.63;;;;;;;19.00;48.11;95084.22;5055593;28;20052;-75
2023/09/13 06:07:10;;;;;;;7.00;3.67;;;;;;;18.96;48.27;95082.91;5056041;28;20059;-74
2023/09/13 06:09:35;;;;;;;8.60;4.22;;;;;;;18.80;47.77;95080.34;5073343;28;20025;-81
2023/09/13 06:12:01;;;;;;;9.55;4.30;;;;;;;18.66;48.07;95081.84;5074033;28;20040;-75
2023/09/13 06:14:27;;;;;;;11.30;4.15;;;;;;;18.68;47.85;95079.84;5073872;28;20024;-74
2023/09/13 06:16:53;;;;;;;7.47;4.10;;;;;;;19.11;47.84;95082.97;5048371;28;20483;-74
2023/09/13 06:19:18;;;;;;;7.00;3.88;;;;;;;19.36;47.56;95094.19;5052393;28;20033;-74
2023/09/13 06:21:43;;;;;;;7.20;3.72;;;;;;;19.28;47.28;95087.19;5060170;28;20021;-75
2023/09/13 06:24:09;;;;;;;9.68;4.18;;;;;;;19.19;48.42;95067.13;5070075;28;20036;-74
2023/09/13 06:26:34;;;;;;;8.05;4.05;;;;;;;19.33;48.12;95062.94;5070211;28;20024;-75
2023/09/13 06:29:00;;;;;;;17.45;4.88;;;;;;;19.70;47.55;95091.19;5071363;28;20047;-75
2023/09/13 06:31:25;;;;;;;7.55;4.65;;;;;;;19.63;47.50;95093.66;5070311;28;20056;-74
2023/09/13 06:33:51;;;;;;;9.60;3.95;;;;;;;19.61;47.16;95093.03;5069009;28;20032;-75
2023/09/13 06:36:16;;;;;;;11.60;4.55;;;;;;;19.39;47.36;95091.22;5036585;28;20507;-75
2023/09/13 06:38:42;;;;;;;9.85;4.13;;;;;;;19.34;47.62;95089.09;5071908;28;20028;-74
2023/09/13 06:41:08;;;;;;;6.70;4.15;;;;;;;19.21;47.84;95096.75;5053362;28;20082;-74
2023/09/13 06:43:33;;;;;;;7.72;4.43;;;;;;;19.08;48.47;95094.66;5069667;28;20411;-74
2023/09/13 06:45:59;;;;;;;8.88;4.13;;;;;;;19.50;48.36;95090.81;5069836;28;20107;-75
2023/09/13 06:48:24;;;;;;;10.52;4.18;;;;;;;19.27;47.73;95096.03;5069712;28;20482;-74
2023/09/13 06:50:49;;;;;;;18.17;4.82;;;;;;;19.56;47.94;95100.66;5069203;28;20545;-75
2023/09/13 06:53:15;;;;;;;12.30;3.78;;;;;;;19.87;47.57;95107.69;5067859;28;20037;-76
2023/09/13 06:55:40;;;;;;;10.52;4.35;;;;;;;20.05;46.50;95104.75;5053991;28;20028;-76
2023/09/13 06:58:07;;;;;;;14.57;4.18;;;;;;;20.15;46.67;95109.78;5064792;28;20022;-76
2023/09/13 07:00:32;;;;;;;12.60;4.20;;;;;;;19.99;46.58;95093.09;5051396;28;20029;-76
2023/09/13 07:02:58;;;;;;;5.93;3.95;;;;;;;19.95;46.89;95101.56;5051998;28;20502;-77
2023/09/13 07:05:23;;;;;;;10.57;3.75;;;;;;;20.16;46.37;95099.03;5034884;28;20032;-77
2023/09/13 07:07:48;;;;;;;10.57;3.90;;;;;;;20.61;45.34;95104.38;5051660;28;20326;-77
2023/09/13 07:10:14;;;;;;;8.20;3.63;;;;;;;20.66;44.92;95104.66;5044070;28;20036;-78
2023/09/13 07:12:39;;;;;;;9.85;3.80;;;;;;;21.10;43.52;95098.53;5038474;28;20115;-78
2023/09/13 07:15:07;;;;;;;10.45;3.55;;;;;;;20.95;43.47;95096.75;5037268;28;20066;-78
2023/09/13 07:17:33;;;;;;;6.63;3.80;;;;;;;20.80;44.18;95098.56;5071615;28;20037;-78
2023/09/13 07:19:58;;;;;;;7.10;3.90;;;;;;;20.96;43.56;95093.09;5057037;28;20118;-77
2023/09/13 07:22:24;;;;;;;6.20;3.70;;;;;;;20.85;43.07;95085.63;5072496;28;20471;-79
2023/09/13 07:24:50;;;;;;;7.60;3.42;;;;;;;21.13;43.44;95092.88;5054797;28;20483;-78
2023/09/13 07:27:15;;;;;;;8.73;3.85;;;;;;;21.19;42.45;95092.94;5051599;28;20055;-78
2023/09/13 07:29:41;;;;;;;11.35;4.00;;;;;;;21.52;41.96;95078.50;5036255;28;20037;-78
2023/09/13 07:32:06;;;;;;;7.55;3.30;;;;;;;21.75;42.06;95094.97;5071886;28;20529;-77
2023/09/13 07:34:32;;;;;;;8.63;3.70;;;;;;;21.73;41.53;95086.44;5070819;28;20037;-78
2023/09/13 07:36:57;;;;;;;5.53;3.33;;;;;;;21.72;41.29;95092.72;5071429;28;20033;-78
2023/09/13 07:39:22;;;;;;;8.32;3.20;;;;;;;21.93;41.23;95078.69;5071099;28;20031;-78
2023/09/13 07:41:48;;;;;;;7.38;3.50;;;;;;;21.98;40.63;95091.31;5071573;28;20033;-78
2023/09/13 07:44:13;;;;;;;7.00;3.28;;;;;;;21.77;40.71;95074.47;5054459;28;20033;-79
2023/09/13 07:46:39;;;;;;;5.18;3.00;;;;;;;21.86;40.69;95089.19;5072409;28;20036;-78
2023/09/13 07:49:04;;;;;;;8.20;3.25;;;;;;;21.94;40.85;95087.41;5071969;28;20025;-78
2023/09/13 07:51:30;;;;;;;8.85;3.47;;;;;;;22.16;40.07;95088.22;5071247;28;20033;-79
2023/09/13 07:54:03;;;;;;;6.07;3.22;;;;;;;22.55;37.93;95087.69;5037781;28;20024;-79
2023/09/13 07:56:29;;;;;;;7.47;2.80;;;;;;;22.53;38.43;95079.94;5055474;28;20600;-79
2023/09/13 07:58:55;;;;;;;4.57;2.95;;;;;;;22.55;37.39;95093.00;5054167;28;20032;-78
2023/09/13 08:01:20;;;;;;;5.30;2.80;;;;;;;22.86;36.05;95059.94;5054429;28;20029;-79
2023/09/13 08:03:47;;;;;;;7.00;2.80;;;;;;;22.61;36.17;95075.50;5070977;28;20052;-78
2023/09/13 08:06:12;;;;;;;4.93;2.80;;;;;;;22.69;36.54;95078.00;5037542;28;20089;-79
2023/09/13 08:08:38;;;;;;;6.30;3.05;;;;;;;22.84;37.22;95073.38;5070687;28;20035;-80
2023/09/13 08:11:03;;;;;;;5.05;3.00;;;;;;;23.02;37.68;95075.53;5072085;28;20035;-79
2023/09/13 08:13:28;;;;;;;4.80;3.05;;;;;;;23.67;37.13;95080.41;5037652;28;20025;-80
2023/09/13 08:15:54;;;;;;;7.70;2.92;;;;;;;23.71;35.94;95068.41;5053863;28;20486;-80
2023/09/13 08:18:19;;;;;;;8.48;2.88;;;;;;;23.42;35.67;95073.00;5054050;28;20056;-79
2023/09/13 08:20:45;;;;;;;4.07;2.80;;;;;;;23.64;34.16;95066.53;5071813;28;20043;-80
2023/09/13 08:23:10;;;;;;;6.97;2.85;;;;;;;23.96;34.67;95068.63;5037439;28;20039;-80
2023/09/13 08:25:36;;;;;;;8.27;2.80;;;;;;;24.02;34.92;95066.00;5070685;28;20024;-79
2023/09/13 08:28:01;;;;;;;6.18;3.03;;;;;;;23.65;34.68;95062.03;5053691;28;20417;-78
2023/09/13 08:30:26;;;;;;;7.80;2.90;;;;;;;23.45;35.12;95066.50;5037176;28;20082;-77
2023/09/13 08:32:52;;;;;;;5.97;2.92;;;;;;;23.94;35.11;95071.50;5053948;28;20066;-77
2023/09/13 08:35:17;;;;;;;7.65;3.08;;;;;;;24.35;34.50;95059.00;5070405;28;20074;-76
2023/09/13 08:37:43;;;;;;;6.82;3.33;;;;;;;23.94;35.51;95057.41;5053724;28;20037;-77
2023/09/13 08:40:10;;;;;;;6.43;3.50;;;;;;;24.02;35.74;95063.34;5053726;28;20036;-77
2023/09/13 08:42:35;;;;;;;7.22;3.10;;;;;;;24.11;35.06;95065.78;5070502;28;20388;-76
2023/09/13 08:45:00;;;;;;;8.30;3.50;;;;;;;24.34;35.14;95057.38;5053437;28;20050;-76
2023/09/13 08:47:26;;;;;;;11.32;3.65;;;;;;;24.27;34.88;95057.41;5053498;28;20032;-76
2023/09/13 08:49:52;;;;;;;8.70;3.22;;;;;;;24.64;34.02;95057.78;5035854;28;20086;-76
2023/09/13 08:52:18;;;;;;;6.32;3.25;;;;;;;24.66;34.14;95061.03;5036848;28;20333;-76
2023/09/13 08:54:43;;;;;;;7.13;3.20;;;;;;;24.77;34.07;95054.25;5070039;28;20036;-77
2023/09/13 08:57:09;;;;;;;8.35;3.72;;;;;;;24.88;33.55;95059.75;5069314;28;20035;-77
2023/09/13 08:59:34;;;;;;;6.97;3.70;;;;;;;24.76;33.97;95050.78;5052845;28;20059;-77
2023/09/13 09:02:00;;;;;;;5.93;4.18;;;;;;;24.86;34.81;95043.19;5052505;28;20028;-77
2023/09/13 09:04:25;;;;;;;7.93;4.00;;;;;;;24.81;34.47;95035.03;5053395;28;20035;-77
2023/09/13 09:06:50;;;;;;;9.38;3.72;;;;;;;25.14;33.65;95042.06;5053161;28;20033;-77
2023/09/13 09:09:18;;;;;;;8.57;3.58;;;;;;;25.26;33.39;95039.56;5053322;28;20040;-76
2023/09/13 09:11:44;;;;;;;7.97;3.67;;;;;;;25.24;33.99;95029.16;5036723;28;20024;-77
2023/09/13 09:14:16;;;;;;;7.60;3.50;;;;;;;25.36;33.33;95019.47;5053421;28;20044;-77
2023/09/13 09:16:42;;;;;;;7.10;3.55;;;;;;;25.12;33.56;95036.94;5053056;28;20029;-77
2023/09/13 09:19:08;;;;;;;6.90;3.30;;;;;;;24.96;33.78;95035.59;5053201;28;20040;-77
2023/09/13 09:21:35;;;;;;;4.40;2.78;;;;;;;24.92;32.00;95015.78;5070078;28;20372;-75
2023/09/13 09:24:00;;;;;;;10.73;3.30;;;;;;;25.25;32.54;95033.44;5036812;28;20519;-80
2023/09/13 09:26:26;;;;;;;9.38;3.13;;;;;;;25.11;31.85;95015.91;5052843;28;20079;-76
2023/09/13 09:28:51;;;;;;;7.90;2.83;;;;;;;25.53;31.33;95026.94;5036406;28;20077;-77
2023/09/13 09:31:17;;;;;;;8.52;3.50;;;;;;;25.33;31.83;95025.22;5053204;28;20028;-77
2023/09/13 09:33:42;;;;;;;5.20;2.60;;;;;;;25.12;31.19;95026.31;5053320;28;20043;-77
2023/09/13 09:36:09;;;;;;;4.75;2.78;;;;;;;25.12;32.15;95039.59;5036446;28;20033;-77
2023/09/13 09:38:35;;;;;;;14.23;3.40;;;;;;;25.29;32.53;95021.34;5036267;28;20040;-76
2023/09/13 09:41:03;;;;;;;7.53;3.42;;;;;;;25.57;32.39;95028.13;5036602;28;20043;-77
2023/09/13 09:43:29;;;;;;;8.23;3.10;;;;;;;25.56;31.96;95029.16;5053400;28;20042;-77
2023/09/13 09:45:54;;;;;;;5.88;3.30;;;;;;;25.51;32.19;95013.03;5052700;28;20020;-77
2023/09/13 09:48:20;;;;;;;5.18;3.03;;;;;;;25.77;31.51;95012.88;5053193;28;20039;-76
2023/09/13 09:50:46;;;;;;;10.40;3.63;;;;;;;25.85;32.04;95015.28;5036398;28;20124;-77
2023/09/13 09:53:13;;;;;;;6.05;2.88;;;;;;;25.93;31.80;95013.38;5052936;28;20036;-77
2023/09/13 09:55:39;;;;;;;7.57;3.97;;;;;;;26.09;31.48;95012.81;5069345;28;20437;-78
2023/09/13 09:58:05;;;;;;;7.57;3.47;;;;;;;26.15;31.56;95003.97;5069842;28;20033;-77
2023/09/13 10:00:30;;;;;;;10.35;3.05;;;;;;;26.07;31.63;95009.56;5036204;28;20043;-78
2023/09/13 10:02:56;;;;;;;4.57;2.75;;;;;;;26.05;31.57;95007.13;5069709;28;20111;-78
2023/09/13 10:05:21;;;;;;;7.13;3.30;;;;;;;26.11;31.86;95005.44;5052698;28;20035;-78
2023/09/13 10:07:51;;;;;;;8.18;3.38;;;;;;;25.91;31.64;95005.63;5038579;28;20049;-78
2023/09/13 10:10:29;;;;;;;6.75;3.30;;;;;;;26.08;30.79;94998.72;5056678;28;20117;-77
2023/09/13 10:12:55;;;;;;;9.27;3.30;;;;;;;26.00;31.27;95001.63;5073158;28;20039;-77
2023/09/13 10:15:20;;;;;;;9.57;3.00;;;;;;;26.00;31.51;94991.00;5056333;28;20030;-77
2023/09/13 10:17:46;;;;;;;6.07;3.13;;;;;;;26.03;31.32;94989.75;5056419;28;20041;-78
2023/09/13 10:20:11;;;;;;;7.25;3.58;;;;;;;26.34;31.84;94983.50;5056256;28;20419;-78
2023/09/13 10:22:38;;;;;;;6.72;2.90;;;;;;;26.22;30.75;94993.25;5039938;28;20021;-78
2023/09/13 10:25:04;;;;;;;8.05;2.80;;;;;;;26.18;32.07;94981.41;5056197;28;20119;-77
2023/09/13 10:27:29;;;;;;;6.32;3.00;;;;;;;25.91;32.60;94949.75;5039921;28;20527;-78
2023/09/13 10:29:56;;;;;;;5.55;3.05;;;;;;;26.16;32.12;94978.97;5056145;28;20510;-78
2023/09/13 10:32:22;;;;;;;8.00;3.00;;;;;;;25.96;31.83;94965.84;5072822;28;20032;-78
2023/09/13 10:34:53;;;;;;;6.85;3.28;;;;;;;26.10;31.53;94979.03;5072528;28;20411;-78
2023/09/13 10:37:32;;;;;;;;;;;;;;;26.28;32.29;94979.06;5039981;28;20036;-78
2023/09/13 10:40:15;;;;;;;8.05;3.55;;;;;;;26.22;32.67;94978.09;5073834;28;19923;-77
2023/09/13 10:42:42;;;;;;;7.13;2.83;;;;;;;26.14;32.03;94966.94;5057174;28;20166;-78
2023/09/13 10:45:08;;;;;;;5.03;2.85;;;;;;;26.39;30.89;94961.53;5074082;28;20024;-77
2023/09/13 10:47:33;;;;;;;8.90;2.83;;;;;;;26.47;31.81;94964.72;5056158;28;20059;-78
2023/09/13 10:50:00;;;;;;;8.07;3.03;;;;;;;26.35;31.48;94945.19;5055407;28;20064;-77
2023/09/13 10:52:25;;;;;;;6.50;3.03;;;;;;;26.57;31.11;94968.75;5072683;28;20036;-78
2023/09/13 10:54:51;;;;;;;7.88;3.17;;;;;;;26.55;31.99;94960.16;5039103;28;20020;-78
2023/09/13 10:57:16;;;;;;;6.57;3.00;;;;;;;26.84;31.31;94958.59;5039245;28;20033;-78
2023/09/13 10:59:42;;;;;;;7.22;3.13;;;;;;;26.72;31.38;94954.00;5071995;28;20036;-78
2023/09/13 11:02:07;;;;;;;4.50;3.05;;;;;;;26.70;31.80;94942.75;5039101;28;20040;-78
2023/09/13 11:04:32;;;;;;;5.38;3.10;;;;;;;26.58;31.65;94943.72;5073522;28;20039;-78
2023/09/13 11:06:58;;;;;;;5.65;3.10;;;;;;;26.80;30.79;94952.06;5073529;28;20564;-78
2023/09/13 11:09:26;;;;;;;7.55;2.97;;;;;;;26.68;30.97;94947.50;5055128;28;20457;-77
2023/09/13 11:11:52;;;;;;;6.85;2.83;;;;;;;26.84;31.12;94939.94;5056006;28;20043;-78
2023/09/13 11:14:23;;;;;;;7.90;3.03;;;;;;;26.91;31.72;94946.81;5055473;28;20028;-78
2023/09/13 11:16:48;;;;;;;6.05;3.33;;;;;;;27.07;30.82;94926.69;5038956;28;20493;-77
2023/09/13 11:19:17;;;;;;;7.90;3.10;;;;;;;26.98;30.93;94944.03;5071121;28;20039;-78
2023/09/13 11:21:46;;;;;;;6.32;2.70;;;;;;;26.95;30.62;94939.16;5055509;28;20058;-78
2023/09/13 11:24:11;;;;;;;7.03;3.13;;;;;;;27.21;29.81;94937.19;5071940;28;20028;-78
2023/09/13 11:26:46;;;;;;;7.28;3.00;;;;;;;27.22;29.94;94912.13;5055387;28;20493;-78
2023/09/13 11:29:22;;;;;;;6.35;3.08;;;;;;;27.37;29.10;94937.34;5072878;28;20083;-79